Time;durP1;ratioP1;P1;durP2;ratioP2;P2;SDS_P1;SDS_P2;PMS_P1;PMS_P2;Temp;Humidity;BMP_temperature;BMP_pressure;BME280_temperature;BME280_humidity;BME280_pressure;Samples;Min_cycle;Max_cycle;Signal;HPM_P1;HPM_P2
2023/08/14 00:01:30;;;;;;;6.53;3.05;;;15.50;99.90;;;;;;4942504;29;20098;-91
2023/08/14 00:03:57;;;;;;;4.97;2.63;;;15.50;99.90;;;;;;4942698;29;20047;-91
2023/08/14 00:06:23;;;;;;;5.90;2.70;;;15.50;99.90;;;;;;4943132;29;20081;-91
2023/08/14 00:08:51;;;;;;;5.43;2.53;;;15.50;99.90;;;;;;4942579;29;20127;-91
2023/08/14 00:11:18;;;;;;;4.78;2.50;;;15.50;99.90;;;;;;4958280;29;20083;-91
2023/08/14 00:13:54;;;;;;;6.45;2.85;;;15.40;99.90;;;;;;4955965;28;20094;-91
2023/08/14 00:16:21;;;;;;;6.45;2.67;;;15.40;99.90;;;;;;4990528;29;20079;-90
2023/08/14 00:18:48;;;;;;;5.07;2.60;;;15.40;99.90;;;;;;4958135;29;20976;-90
2023/08/14 00:21:15;;;;;;;7.93;3.30;;;15.40;99.90;;;;;;4958661;29;20039;-91
2023/08/14 00:23:42;;;;;;;6.93;3.10;;;15.40;99.90;;;;;;4958355;29;20089;-91
2023/08/14 00:26:11;;;;;;;6.72;3.08;;;15.40;99.90;;;;;;4942336;29;20043;-91
2023/08/14 00:28:38;;;;;;;7.20;3.30;;;15.40;99.90;;;;;;4957973;29;20492;-91
2023/08/14 00:31:05;;;;;;;4.70;2.95;;;15.30;99.90;;;;;;4942226;29;20043;-91
2023/08/14 00:33:31;;;;;;;4.70;2.67;;;15.40;99.90;;;;;;4958134;29;20051;-90
2023/08/14 00:35:58;;;;;;;4.65;2.80;;;15.30;99.90;;;;;;4942151;29;20039;-91
2023/08/14 00:38:25;;;;;;;4.43;2.80;;;15.30;99.90;;;;;;4942392;29;20183;-91
2023/08/14 00:40:54;;;;;;;4.72;2.90;;;15.30;99.90;;;;;;4957517;29;20134;-91
2023/08/14 00:43:21;;;;;;;6.60;3.22;;;15.20;99.90;;;;;;4942286;29;20121;-91
2023/08/14 00:45:50;;;;;;;5.85;3.08;;;15.20;99.90;;;;;;4957435;29;20194;-91
2023/08/14 00:48:18;;;;;;;4.40;2.95;;;15.20;99.90;;;;;;4942449;29;20039;-91
2023/08/14 00:50:47;;;;;;;6.15;3.10;;;15.20;99.90;;;;;;4973735;28;20039;-91
2023/08/14 00:53:18;;;;;;;6.90;3.17;;;15.20;99.90;;;;;;4973342;29;20046;-91
2023/08/14 00:55:48;;;;;;;4.80;2.90;;;15.10;99.90;;;;;;4941851;29;20043;-91
2023/08/14 00:58:15;;;;;;;6.13;2.97;;;15.20;99.90;;;;;;4957401;29;20050;-90
2023/08/14 01:00:44;;;;;;;5.22;2.90;;;15.20;99.90;;;;;;4956957;29;20054;-92
2023/08/14 01:03:11;;;;;;;5.70;2.78;;;15.10;99.90;;;;;;4988834;28;20043;-91
2023/08/14 01:05:38;;;;;;;9.70;3.25;;;15.30;99.90;;;;;;4989170;28;20083;-91
2023/08/14 01:08:05;;;;;;;7.40;3.20;;;15.10;99.90;;;;;;4941923;29;20039;-91
2023/08/14 01:11:07;;;;;;;6.38;3.35;;;15.10;99.90;;;;;;4941582;29;20042;-91
2023/08/14 01:13:41;;;;;;;7.55;3.60;;;15.10;99.90;;;;;;4957240;29;20138;-90
2023/08/14 01:16:17;;;;;;;5.43;2.90;;;15.00;99.90;;;;;;4957152;29;20058;-92
2023/08/14 01:18:47;;;;;;;5.60;3.20;;;15.00;99.90;;;;;;4957164;29;20047;-91
2023/08/14 01:21:16;;;;;;;5.78;3.47;;;15.00;99.90;;;;;;4957137;29;20134;-91
2023/08/14 01:24:02;;;;;;;6.43;3.05;;;15.00;99.90;;;;;;4956578;29;20526;-91
2023/08/14 01:26:30;;;;;;;6.03;3.20;;;15.00;99.90;;;;;;4989484;28;20073;-91
2023/08/14 01:28:57;;;;;;;5.45;2.85;;;14.90;99.90;;;;;;4988417;28;20134;-91
2023/08/14 01:31:24;;;;;;;7.75;3.53;;;14.90;99.90;;;;;;4941261;29;20106;-91
2023/08/14 01:33:51;;;;;;;4.65;3.30;;;14.90;99.90;;;;;;4956806;29;20055;-91
2023/08/14 01:36:41;;;;;;;6.03;3.40;;;14.90;99.90;;;;;;4941451;29;20047;-92
2023/08/14 01:39:15;;;;;;;6.15;3.40;;;14.90;99.90;;;;;;4979652;28;20058;-91
2023/08/14 01:41:57;;;;;;;5.07;2.97;;;14.90;99.90;;;;;;4988384;29;20040;-91
2023/08/14 01:44:25;;;;;;;6.70;3.53;;;14.90;99.90;;;;;;4988317;28;20067;-92
2023/08/14 01:46:56;;;;;;;6.93;3.60;;;14.90;99.90;;;;;;4940722;29;20069;-91
2023/08/14 01:49:28;;;;;;;8.38;3.45;;;14.80;99.90;;;;;;4988431;28;20038;-91
2023/08/14 01:51:55;;;;;;;8.02;3.28;;;14.80;99.90;;;;;;4988285;29;20106;-90
2023/08/14 01:54:22;;;;;;;5.15;3.33;;;14.80;99.90;;;;;;4956536;29;20093;-91
2023/08/14 01:56:49;;;;;;;7.35;3.33;;;14.80;99.90;;;;;;4955931;29;20656;-91
2023/08/14 01:59:16;;;;;;;7.07;3.70;;;14.80;99.90;;;;;;4988174;28;20047;-90
2023/08/14 02:01:42;;;;;;;10.32;3.47;;;14.80;99.90;;;;;;4956353;29;20051;-91
2023/08/14 02:04:09;;;;;;;8.55;3.58;;;14.90;99.90;;;;;;4956295;28;20039;-91
2023/08/14 02:06:36;;;;;;;8.15;3.80;;;14.70;99.90;;;;;;4940772;29;20035;-91
2023/08/14 02:09:03;;;;;;;5.25;3.40;;;14.70;99.90;;;;;;4940315;29;20054;-91
2023/08/14 02:11:30;;;;;;;8.32;3.75;;;14.70;99.90;;;;;;5004497;28;20497;-91
2023/08/14 02:13:57;;;;;;;6.18;3.53;;;14.70;99.90;;;;;;4971825;28;20047;-92
2023/08/14 02:16:23;;;;;;;6.68;3.70;;;14.70;99.90;;;;;;4940970;29;20043;-91
2023/08/14 02:18:50;;;;;;;8.05;3.70;;;14.70;99.90;;;;;;4940339;29;20047;-91
2023/08/14 02:21:17;;;;;;;7.57;3.55;;;14.60;99.90;;;;;;4956080;29;20054;-91
2023/08/14 02:23:43;;;;;;;6.63;3.60;;;14.60;99.90;;;;;;4940732;29;20039;-91
2023/08/14 02:26:10;;;;;;;7.72;3.60;;;14.60;99.90;;;;;;4956498;29;20038;-91
2023/08/14 02:28:37;;;;;;;8.88;3.97;;;14.60;99.90;;;;;;4940330;29;20039;-90
2023/08/14 02:31:04;;;;;;;6.22;3.83;;;14.60;99.90;;;;;;4940492;29;20047;-91
2023/08/14 02:33:31;;;;;;;5.03;3.30;;;14.50;99.90;;;;;;4956070;29;20130;-91
2023/08/14 02:35:58;;;;;;;6.00;3.30;;;14.50;99.90;;;;;;4955780;29;20473;-91
2023/08/14 02:38:25;;;;;;;7.90;3.70;;;14.50;99.90;;;;;;4956303;29;20512;-91
2023/08/14 02:40:52;;;;;;;6.43;3.50;;;14.50;99.90;;;;;;4987767;28;20152;-91
2023/08/14 02:43:18;;;;;;;8.07;3.95;;;14.60;99.90;;;;;;4940741;29;20090;-91
2023/08/14 02:45:45;;;;;;;9.40;3.90;;;14.50;99.90;;;;;;4972010;28;20043;-91
2023/08/14 02:48:12;;;;;;;7.97;3.70;;;14.60;99.90;;;;;;4956209;29;20046;-91
2023/08/14 02:50:39;;;;;;;7.22;3.80;;;14.50;99.90;;;;;;4987793;28;20082;-92
2023/08/14 02:53:06;;;;;;;8.48;3.58;;;14.40;99.90;;;;;;4956020;29;20505;-92
2023/08/14 02:55:33;;;;;;;7.03;3.50;;;14.40;99.90;;;;;;4971918;29;20062;-91
2023/08/14 02:58:00;;;;;;;9.52;4.20;;;14.40;99.90;;;;;;4940329;29;20039;-91
2023/08/14 03:00:27;;;;;;;5.50;3.33;;;14.20;99.90;;;;;;4940312;29;20051;-91
2023/08/14 03:02:53;;;;;;;6.22;3.60;;;14.40;99.90;;;;;;4940209;29;20078;-90
2023/08/14 03:05:20;;;;;;;6.22;4.15;;;14.30;99.90;;;;;;4956193;29;20043;-91
2023/08/14 03:07:47;;;;;;;6.80;3.60;;;14.30;99.90;;;;;;4956008;29;20102;-91
2023/08/14 03:10:14;;;;;;;6.60;3.90;;;14.30;99.90;;;;;;4955851;29;20554;-91
2023/08/14 03:12:41;;;;;;;6.38;3.78;;;14.30;99.90;;;;;;4940622;29;20456;-90
2023/08/14 03:15:08;;;;;;;5.47;3.55;;;14.30;99.90;;;;;;4949407;29;20062;-91
2023/08/14 03:17:34;;;;;;;7.53;4.50;;;14.30;99.90;;;;;;4958608;29;20054;-91
2023/08/14 03:20:04;;;;;;;8.10;3.78;;;14.30;99.90;;;;;;4943791;29;20050;-91
2023/08/14 03:22:31;;;;;;;5.75;3.53;;;14.30;99.90;;;;;;4959339;29;20039;-90
2023/08/14 03:24:58;;;;;;;6.00;3.58;;;14.30;99.90;;;;;;4959246;29;20086;-91
2023/08/14 03:27:24;;;;;;;6.68;3.80;;;14.30;99.90;;;;;;4958978;29;20043;-91
2023/08/14 03:29:51;;;;;;;5.13;3.53;;;14.20;99.90;;;;;;4959522;29;20051;-92
2023/08/14 03:32:18;;;;;;;6.90;4.05;;;14.20;99.90;;;;;;4958967;29;20043;-90
2023/08/14 03:34:45;;;;;;;6.82;4.03;;;14.20;99.90;;;;;;4959005;29;20065;-91
2023/08/14 03:37:12;;;;;;;5.80;3.58;;;14.20;99.90;;;;;;4942864;29;20047;-92
2023/08/14 03:39:39;;;;;;;8.50;4.05;;;14.20;99.90;;;;;;4958539;29;20183;-91
2023/08/14 03:42:06;;;;;;;7.63;4.03;;;14.20;99.90;;;;;;4958779;29;20448;-90
2023/08/14 03:44:33;;;;;;;5.90;3.53;;;14.20;99.90;;;;;;4958403;29;20125;-90
2023/08/14 03:47:00;;;;;;;6.15;3.50;;;14.20;99.90;;;;;;4939273;29;20039;-91
2023/08/14 03:49:26;;;;;;;6.38;3.42;;;14.20;99.90;;;;;;4955615;29;20175;-90
2023/08/14 03:51:53;;;;;;;6.22;3.85;;;14.20;99.90;;;;;;4955750;29;20050;-91
2023/08/14 03:54:20;;;;;;;5.40;4.03;;;14.10;99.90;;;;;;4939427;29;20130;-91
2023/08/14 03:56:47;;;;;;;7.63;3.90;;;14.20;99.90;;;;;;4924278;29;20043;-91
2023/08/14 03:59:13;;;;;;;8.73;3.78;;;14.10;99.90;;;;;;4955259;29;20107;-90
2023/08/14 04:01:42;;;;;;;6.13;3.95;;;14.10;99.90;;;;;;4954884;29;20051;-92
2023/08/14 04:04:10;;;;;;;5.43;4.10;;;14.10;99.90;;;;;;4955022;29;20047;-92
2023/08/14 04:06:37;;;;;;;7.82;3.90;;;14.10;99.90;;;;;;4954987;29;20507;-91
2023/08/14 04:09:05;;;;;;;5.45;3.78;;;14.00;99.90;;;;;;4954888;29;20039;-90
2023/08/14 04:11:32;;;;;;;10.02;3.85;;;14.00;99.90;;;;;;4954871;29;20051;-91
2023/08/14 04:13:59;;;;;;;7.40;4.40;;;14.10;99.90;;;;;;4955043;29;20043;-90
2023/08/14 04:16:41;;;;;;;5.38;4.07;;;14.10;99.90;;;;;;4954813;29;20063;-91
2023/08/14 04:19:08;;;;;;;7.40;4.07;;;14.00;99.90;;;;;;4954676;29;20048;-90
2023/08/14 04:21:36;;;;;;;7.45;4.38;;;14.10;99.90;;;;;;4954869;29;20481;-91
2023/08/14 04:24:03;;;;;;;8.38;4.10;;;14.00;99.90;;;;;;4923637;29;20031;-89
2023/08/14 04:26:29;;;;;;;9.52;4.18;;;14.00;99.90;;;;;;4954930;29;20130;-90
2023/08/14 04:28:56;;;;;;;7.95;4.55;;;14.10;99.90;;;;;;4954106;29;20130;-90
2023/08/14 04:31:23;;;;;;;6.82;4.63;;;14.10;99.90;;;;;;4954382;29;20055;-91
2023/08/14 04:33:50;;;;;;;7.78;4.45;;;14.10;99.90;;;;;;4954762;29;20054;-90
2023/08/14 04:36:17;;;;;;;6.90;4.15;;;14.10;99.90;;;;;;4954492;29;20515;-90
2023/08/14 04:38:44;;;;;;;6.70;4.45;;;14.10;99.90;;;;;;4954720;29;20043;-89
2023/08/14 04:41:11;;;;;;;7.50;4.95;;;14.10;99.90;;;;;;4953977;29;20140;-91
2023/08/14 04:43:37;;;;;;;6.38;4.20;;;14.20;99.90;;;;;;4954520;29;20043;-91
2023/08/14 04:46:10;;;;;;;7.95;4.47;;;14.20;99.90;;;;;;4954432;29;20504;-91
2023/08/14 04:48:38;;;;;;;7.03;4.80;;;14.20;99.90;;;;;;4954533;29;20048;-91
2023/08/14 04:51:06;;;;;;;8.95;4.75;;;14.30;99.90;;;;;;4954486;29;20044;-90
2023/08/14 04:53:33;;;;;;;11.32;5.10;;;14.30;99.90;;;;;;4954371;29;20036;-91
2023/08/14 04:55:59;;;;;;;7.28;4.72;;;14.40;99.90;;;;;;4954258;29;20046;-91
2023/08/14 04:58:26;;;;;;;7.10;4.97;;;14.40;99.90;;;;;;4954579;29;20036;-90
2023/08/14 05:00:53;;;;;;;8.15;5.20;;;14.40;99.90;;;;;;4954413;29;20106;-90
2023/08/14 05:03:20;;;;;;;7.78;4.90;;;14.50;99.90;;;;;;4954005;29;20043;-90
2023/08/14 05:05:51;;;;;;;6.53;4.50;;;14.60;99.90;;;;;;4954024;29;20039;-91
2023/08/14 05:08:18;;;;;;;11.07;5.47;;;14.60;99.90;;;;;;4953782;29;20075;-90
2023/08/14 05:10:52;;;;;;;11.43;5.80;;;14.60;99.90;;;;;;4954189;29;20523;-90
2023/08/14 05:13:19;;;;;;;12.63;5.93;;;14.70;99.90;;;;;;4953559;29;20058;-90
2023/08/14 05:15:47;;;;;;;11.07;5.10;;;14.80;99.90;;;;;;4953499;29;20428;-90
2023/08/14 05:18:15;;;;;;;8.07;4.88;;;14.90;99.90;;;;;;4953254;29;20168;-90
2023/08/14 05:20:45;;;;;;;10.27;5.55;;;14.90;99.90;;;;;;4954035;29;20048;-91
2023/08/14 05:23:14;;;;;;;9.82;5.20;;;15.00;99.90;;;;;;4953743;29;20503;-89
2023/08/14 05:25:44;;;;;;;10.55;5.78;;;15.10;99.90;;;;;;4953608;29;20043;-90
2023/08/14 05:28:12;;;;;;;8.98;5.85;;;15.10;99.90;;;;;;4954303;29;20226;-90
2023/08/14 05:30:46;;;;;;;10.02;5.80;;;15.20;99.90;;;;;;4938192;29;20039;-90
2023/08/14 05:33:13;;;;;;;9.05;5.80;;;15.20;99.90;;;;;;4953712;29;20040;-90
2023/08/14 05:35:40;;;;;;;10.52;6.22;;;15.30;99.90;;;;;;4953396;29;20508;-91
2023/08/14 05:38:07;;;;;;;9.95;5.75;;;15.00;99.90;;;;;;4953701;29;20047;-90
2023/08/14 05:40:34;;;;;;;10.20;5.50;;;15.30;99.90;;;;;;4953567;29;20136;-90
2023/08/14 05:43:06;;;;;;;9.85;5.30;;;15.40;99.90;;;;;;4953636;29;20059;-90
2023/08/14 05:45:42;;;;;;;11.93;6.05;;;15.40;99.90;;;;;;4937640;29;20098;-90
2023/08/14 05:48:10;;;;;;;11.68;5.50;;;15.40;99.90;;;;;;4949924;29;20036;-90
2023/08/14 05:50:36;;;;;;;8.82;5.93;;;15.60;99.90;;;;;;4918068;29;20040;-90
2023/08/14 05:53:04;;;;;;;10.65;6.05;;;15.60;99.90;;;;;;4953317;29;20442;-89
2023/08/14 05:55:33;;;;;;;9.75;5.78;;;15.70;99.90;;;;;;4937360;29;20039;-90
2023/08/14 05:58:02;;;;;;;9.65;5.60;;;15.40;99.90;;;;;;4953525;29;20051;-90
2023/08/14 06:00:30;;;;;;;13.90;5.60;;;15.80;99.90;;;;;;4937325;29;20044;-90
2023/08/14 06:02:57;;;;;;;12.10;5.95;;;15.90;99.90;;;;;;4953082;29;20054;-90
2023/08/14 06:05:24;;;;;;;8.73;5.88;;;16.00;99.90;;;;;;4952799;29;20036;-91
2023/08/14 06:07:53;;;;;;;10.10;5.80;;;16.10;99.90;;;;;;4952965;29;20040;-90
2023/08/14 06:10:20;;;;;;;12.10;5.65;;;16.10;99.90;;;;;;4953143;29;20489;-90
2023/08/14 06:12:50;;;;;;;8.70;5.50;;;16.20;99.90;;;;;;4953210;29;20127;-91
2023/08/14 06:15:27;;;;;;;9.90;5.28;;;16.20;99.90;;;;;;4956559;29;20066;-91
2023/08/14 06:17:54;;;;;;;8.77;5.55;;;16.20;99.90;;;;;;4952788;29;20154;-89
2023/08/14 06:20:20;;;;;;;10.63;5.55;;;16.30;99.90;;;;;;4952591;29;20075;-89
2023/08/14 06:22:47;;;;;;;9.07;5.32;;;16.30;99.90;;;;;;4952625;29;20043;-88
2023/08/14 06:25:15;;;;;;;9.10;5.43;;;16.30;99.90;;;;;;4952856;29;20043;-89
2023/08/14 06:27:45;;;;;;;10.90;5.55;;;16.40;99.90;;;;;;4968102;29;20122;-89
2023/08/14 06:30:12;;;;;;;11.65;5.78;;;16.50;99.90;;;;;;4952913;29;20040;-89
2023/08/14 06:32:39;;;;;;;10.75;5.43;;;16.50;99.90;;;;;;4952160;29;20408;-89
2023/08/14 06:35:07;;;;;;;10.35;5.95;;;16.50;99.90;;;;;;4952919;29;20103;-89
2023/08/14 06:37:34;;;;;;;10.93;5.47;;;16.60;99.90;;;;;;4936929;29;20134;-89
2023/08/14 06:40:01;;;;;;;9.15;5.22;;;16.60;99.90;;;;;;4952734;29;20135;-89
2023/08/14 06:42:27;;;;;;;10.13;5.65;;;16.70;99.90;;;;;;4952109;29;20043;-89
2023/08/14 06:44:54;;;;;;;11.32;5.97;;;16.80;99.90;;;;;;4952936;29;20048;-89
2023/08/14 06:47:21;;;;;;;9.48;5.93;;;16.80;99.90;;;;;;4952747;29;20099;-89
2023/08/14 06:49:48;;;;;;;7.22;5.00;;;16.90;99.90;;;;;;4952343;29;20044;-89
2023/08/14 06:52:15;;;;;;;12.10;5.82;;;16.90;99.90;;;;;;4954913;29;20054;-84
2023/08/14 06:54:42;;;;;;;11.65;4.85;;;17.00;99.90;;;;;;4940400;29;20067;-94
2023/08/14 06:57:09;;;;;;;7.85;5.40;;;17.00;99.90;;;;;;4943438;29;20111;-90
2023/08/14 06:59:35;;;;;;;10.13;5.30;;;17.00;99.90;;;;;;4959155;29;20043;-90
2023/08/14 07:02:02;;;;;;;7.25;5.35;;;17.10;99.90;;;;;;4975275;29;20059;-90
2023/08/14 07:04:29;;;;;;;10.43;5.32;;;17.10;99.90;;;;;;4927655;29;20054;-89
2023/08/14 07:06:56;;;;;;;7.70;5.32;;;17.10;99.90;;;;;;4959521;29;20492;-91
2023/08/14 07:09:23;;;;;;;7.78;5.40;;;17.20;99.90;;;;;;4943681;29;20039;-90
2023/08/14 07:11:50;;;;;;;9.15;5.07;;;17.20;99.90;;;;;;4943596;29;20600;-90
2023/08/14 07:14:16;;;;;;;12.80;5.43;;;17.30;99.90;;;;;;4928126;29;20047;-89
2023/08/14 07:16:43;;;;;;;11.73;5.00;;;17.40;99.90;;;;;;4958780;29;20202;-89
2023/08/14 07:19:10;;;;;;;8.70;5.50;;;17.40;99.90;;;;;;4943473;29;20129;-89
2023/08/14 07:21:37;;;;;;;8.95;5.50;;;17.50;99.90;;;;;;4958811;29;20130;-90
2023/08/14 07:24:04;;;;;;;9.77;5.60;;;17.50;99.90;;;;;;4960528;28;20051;-88
2023/08/14 07:26:31;;;;;;;8.55;5.18;;;17.60;99.90;;;;;;4950094;29;20091;-87
2023/08/14 07:28:57;;;;;;;9.13;4.95;;;17.60;99.90;;;;;;4937212;29;20047;-86
2023/08/14 07:31:24;;;;;;;8.05;4.85;;;17.70;99.90;;;;;;4942031;29;20039;-85
2023/08/14 07:34:06;;;;;;;6.90;4.70;;;17.70;99.90;;;;;;4957986;29;20476;-89
2023/08/14 07:36:35;;;;;;;9.32;5.10;;;17.70;99.90;;;;;;4943645;29;20492;-90
2023/08/14 07:39:02;;;;;;;8.27;4.57;;;17.80;99.90;;;;;;4958834;29;20050;-88
2023/08/14 07:41:29;;;;;;;6.70;4.60;;;17.80;99.90;;;;;;4958863;29;20473;-90
2023/08/14 07:43:56;;;;;;;8.25;4.60;;;17.80;99.90;;;;;;4943142;29;20043;-89
2023/08/14 07:46:23;;;;;;;7.38;5.07;;;17.90;99.90;;;;;;4958813;29;20050;-89
2023/08/14 07:48:50;;;;;;;11.32;4.60;;;17.90;99.90;;;;;;4942738;29;20047;-87
2023/08/14 07:51:17;;;;;;;9.38;5.07;;;17.90;99.90;;;;;;4974092;29;20039;-87
2023/08/14 07:53:43;;;;;;;6.78;4.68;;;18.00;99.90;;;;;;5006069;28;20109;-88
2023/08/14 07:56:10;;;;;;;9.90;5.47;;;18.10;99.90;;;;;;4958241;29;20110;-85
2023/08/14 07:58:37;;;;;;;10.40;5.18;;;18.30;99.90;;;;;;4941187;29;20039;-86
2023/08/14 08:01:04;;;;;;;8.48;4.55;;;18.40;99.90;;;;;;4926208;29;20086;-84
2023/08/14 08:03:31;;;;;;;7.60;4.93;;;18.60;99.90;;;;;;4940265;29;20101;-84
2023/08/14 08:05:58;;;;;;;11.25;4.93;;;18.80;99.90;;;;;;4941007;29;20171;-85
2023/08/14 08:08:24;;;;;;;8.35;4.75;;;19.00;99.90;;;;;;4941239;29;20476;-85
2023/08/14 08:10:51;;;;;;;9.57;4.30;;;19.10;99.90;;;;;;4956641;29;20492;-84
2023/08/14 08:13:18;;;;;;;8.85;4.20;;;19.30;99.90;;;;;;4925576;29;20083;-85
2023/08/14 08:15:48;;;;;;;8.00;4.20;;;19.50;99.90;;;;;;4940655;29;20193;-84
2023/08/14 08:18:16;;;;;;;8.27;4.30;;;19.70;99.90;;;;;;4925997;29;20512;-84
2023/08/14 08:20:43;;;;;;;8.77;3.72;;;19.70;99.90;;;;;;4956753;29;20043;-88
2023/08/14 08:23:10;;;;;;;6.55;3.30;;;19.90;99.90;;;;;;4941132;29;20051;-83
2023/08/14 08:25:36;;;;;;;7.97;3.90;;;20.00;99.90;;;;;;4924590;29;20039;-82
2023/08/14 08:28:03;;;;;;;9.25;3.15;;;20.10;99.90;;;;;;4925085;29;20754;-83
2023/08/14 08:30:30;;;;;;;6.85;3.03;;;20.20;99.90;;;;;;4925241;29;20456;-81
2023/08/14 08:32:57;;;;;;;7.82;3.05;;;20.40;99.90;;;;;;4956523;29;20035;-79
2023/08/14 08:35:23;;;;;;;4.78;2.63;;;20.50;99.90;;;;;;4925222;29;20054;-84
2023/08/14 08:37:50;;;;;;;5.40;2.90;;;20.60;99.90;;;;;;4924819;29;20043;-80
2023/08/14 08:40:17;;;;;;;4.72;2.67;;;20.80;99.90;;;;;;4941102;29;20452;-85
2023/08/14 08:42:47;;;;;;;8.77;2.63;;;21.00;99.90;;;;;;4925108;29;20210;-82
2023/08/14 08:45:16;;;;;;;4.97;2.40;;;21.10;99.90;;;;;;4925156;29;20071;-82
2023/08/14 08:47:48;;;;;;;3.92;2.22;;;21.20;99.90;;;;;;4956062;29;20035;-80
2023/08/14 08:50:14;;;;;;;6.50;2.10;;;21.30;99.90;;;;;;4956186;29;20055;-87
2023/08/14 08:52:42;;;;;;;4.95;2.10;;;21.40;99.90;;;;;;4956380;29;20054;-86
2023/08/14 08:55:09;;;;;;;4.90;2.03;;;21.50;99.90;;;;;;4940934;29;20146;-88
2023/08/14 08:57:38;;;;;;;4.63;2.00;;;21.60;99.90;;;;;;4941014;29;20129;-88
2023/08/14 09:00:06;;;;;;;4.38;2.00;;;21.80;99.90;;;;;;4956430;29;20055;-88
2023/08/14 09:02:32;;;;;;;5.93;1.95;;;21.80;99.90;;;;;;4956297;29;20044;-87
2023/08/14 09:05:00;;;;;;;4.50;2.05;;;21.80;99.90;;;;;;4939709;29;20061;-87
2023/08/14 09:07:27;;;;;;;5.70;2.00;;;21.90;99.90;;;;;;4941179;29;20046;-89
2023/08/14 09:09:54;;;;;;;4.25;1.80;;;21.90;99.90;;;;;;4939698;28;20035;-89
2023/08/14 09:12:20;;;;;;;4.75;1.88;;;22.00;99.90;;;;;;4940430;29;20046;-88
2023/08/14 09:15:02;;;;;;;8.38;1.70;;;21.90;99.90;;;;;;4938304;28;20051;-87
2023/08/14 09:17:30;;;;;;;5.45;2.30;;;21.90;99.90;;;;;;4955864;29;20047;-87
2023/08/14 09:19:57;;;;;;;4.22;1.70;;;22.00;99.90;;;;;;4924948;29;20137;-88
2023/08/14 09:22:28;;;;;;;6.13;2.30;;;22.00;99.90;;;;;;4955716;29;20047;-86
2023/08/14 09:24:56;;;;;;;5.32;2.20;;;22.10;99.90;;;;;;4939204;29;20035;-86
2023/08/14 09:27:25;;;;;;;6.70;2.30;;;22.00;99.90;;;;;;4957145;29;20086;-90
2023/08/14 09:29:55;;;;;;;6.45;2.75;;;22.00;99.90;;;;;;4940684;29;20055;-90
2023/08/14 09:32:23;;;;;;;4.40;2.00;;;22.00;99.90;;;;;;4952903;29;20054;-89
2023/08/14 09:35:16;;;;;;;7.38;2.20;;;22.10;99.90;;;;;;4952592;29;20047;-93
2023/08/14 09:37:46;;;;;;;7.38;2.35;;;22.20;99.90;;;;;;4943208;29;20119;-93
2023/08/14 09:40:17;;;;;;;9.32;2.28;;;22.30;99.90;;;;;;4938303;29;20088;-91
2023/08/14 09:42:50;;;;;;;3.95;2.30;;;22.30;99.90;;;;;;4965764;29;20047;-89
2023/08/14 09:45:27;;;;;;;3.95;1.90;;;22.40;99.90;;;;;;4956886;29;20404;-90
2023/08/14 09:48:05;;;;;;;5.80;2.53;;;22.50;99.90;;;;;;4956539;29;20046;-91
2023/08/14 09:50:32;;;;;;;5.88;2.28;;;22.60;99.90;;;;;;4956772;29;20047;-91
2023/08/14 09:53:00;;;;;;;6.22;2.45;;;22.70;99.90;;;;;;4940685;29;20404;-89
2023/08/14 09:55:27;;;;;;;7.13;2.45;;;22.90;99.90;;;;;;4940905;29;20130;-90
2023/08/14 09:57:57;;;;;;;4.95;2.38;;;23.00;99.90;;;;;;4955531;29;20114;-87
2023/08/14 10:00:31;;;;;;;7.53;2.10;;;23.10;99.90;;;;;;4955911;29;20050;-88
2023/08/14 10:03:00;;;;;;;7.40;2.25;;;23.00;99.90;;;;;;4940685;29;20039;-89
2023/08/14 10:05:27;;;;;;;4.88;2.20;;;23.10;99.90;;;;;;4956269;29;20552;-89
2023/08/14 10:08:02;;;;;;;5.28;2.38;;;23.20;99.90;;;;;;4955474;29;20039;-89
2023/08/14 10:10:31;;;;;;;5.15;1.92;;;23.00;99.90;;;;;;4956421;29;20042;-90
2023/08/14 10:13:45;;;;;;;8.50;2.03;;;22.90;99.90;;;;;;4955297;29;20770;-89
2023/08/14 10:16:23;;;;;;;7.38;2.08;;;23.00;99.90;;;;;;4916831;29;20115;-86
2023/08/14 10:18:53;;;;;;;;;;;23.10;99.90;;;;;;4902153;29;20141;-85
2023/08/14 10:21:20;;;;;;;5.80;1.83;;;23.30;99.90;;;;;;4917091;29;19919;-87
2023/08/14 10:23:48;;;;;;;5.38;1.80;;;23.40;99.90;;;;;;4901860;29;20036;-87
2023/08/14 10:26:16;;;;;;;8.10;1.83;;;23.40;99.90;;;;;;4903399;29;20050;-86
2023/08/14 10:28:43;;;;;;;5.18;1.83;;;23.40;99.90;;;;;;4945257;29;20039;-87
2023/08/14 10:31:10;;;;;;;5.05;1.48;;;23.50;99.90;;;;;;4945274;29;20050;-87
2023/08/14 10:33:39;;;;;;;4.32;1.63;;;23.70;99.90;;;;;;4945854;29;20098;-87
2023/08/14 10:36:09;;;;;;;7.55;1.67;;;23.90;99.90;;;;;;4959872;29;20043;-87
2023/08/14 10:38:42;;;;;;;5.80;1.55;;;23.90;99.90;;;;;;4963006;28;20221;-86
2023/08/14 10:41:09;;;;;;;4.55;1.50;;;24.10;99.90;;;;;;4964855;29;20043;-86
2023/08/14 10:43:36;;;;;;;3.13;1.65;;;24.20;99.90;;;;;;4961686;29;20043;-90
2023/08/14 10:46:10;;;;;;;5.85;1.75;;;24.00;99.90;;;;;;4951630;29;20189;-92
2023/08/14 10:48:38;;;;;;;6.82;1.88;;;24.00;99.90;;;;;;4962254;29;20093;-88
2023/08/14 10:51:20;;;;;;;7.68;1.65;;;24.10;99.90;;;;;;4962049;29;20101;-89
2023/08/14 10:54:00;;;;;;;4.50;1.52;;;23.90;99.90;;;;;;4961757;29;20054;-89
2023/08/14 10:56:48;;;;;;;3.10;1.40;;;24.00;99.90;;;;;;4961540;29;20484;-86
2023/08/14 10:59:26;;;;;;;3.20;1.40;;;24.20;99.90;;;;;;4961664;29;20099;-89
2023/08/14 11:02:24;;;;;;;5.05;1.75;;;24.40;99.90;;;;;;4946021;29;20047;-89
2023/08/14 11:05:11;;;;;;;5.90;1.92;;;24.50;99.90;;;;;;4961497;28;20043;-88
2023/08/14 11:07:38;;;;;;;4.82;1.50;;;24.20;99.90;;;;;;4976416;28;20050;-88
2023/08/14 11:10:44;;;;;;;6.15;1.85;;;24.00;99.90;;;;;;4978316;28;20089;-88
2023/08/14 11:13:37;;;;;;;5.38;1.85;;;24.10;99.90;;;;;;4939892;29;20043;-87
2023/08/14 11:16:04;;;;;;;6.30;1.70;;;24.30;99.90;;;;;;4917213;29;20505;-84
2023/08/14 11:18:31;;;;;;;4.60;1.70;;;24.50;99.90;;;;;;4954830;29;20048;-83
2023/08/14 11:21:00;;;;;;;4.78;1.65;;;24.50;99.90;;;;;;4938684;29;20051;-82
2023/08/14 11:23:27;;;;;;;5.35;1.83;;;24.60;99.90;;;;;;4923168;29;20048;-83
2023/08/14 11:25:56;;;;;;;4.55;1.48;;;24.80;99.90;;;;;;4923147;29;20110;-84
2023/08/14 11:28:23;;;;;;;4.60;1.30;;;24.90;99.90;;;;;;4938579;29;20412;-83
2023/08/14 11:30:50;;;;;;;4.63;1.30;;;25.00;99.90;;;;;;4922859;29;20036;-84
2023/08/14 11:33:21;;;;;;;4.50;1.67;;;25.00;99.90;;;;;;4938234;29;20043;-84
2023/08/14 11:35:48;;;;;;;4.60;1.50;;;25.20;99.90;;;;;;4923095;29;20051;-83
2023/08/14 11:38:17;;;;;;;3.88;1.50;;;25.30;99.90;;;;;;4948206;29;20043;-84
2023/08/14 11:40:45;;;;;;;4.68;1.27;;;25.30;99.90;;;;;;4960633;28;20097;-86
2023/08/14 11:43:12;;;;;;;4.95;1.50;;;25.30;99.90;;;;;;4944992;28;20051;-86
2023/08/14 11:45:38;;;;;;;5.32;1.40;;;25.40;99.90;;;;;;4929730;29;20042;-86
2023/08/14 11:48:06;;;;;;;4.32;1.30;;;25.40;99.90;;;;;;4922304;29;20103;-86
2023/08/14 11:50:33;;;;;;;3.10;1.20;;;25.40;99.90;;;;;;4954176;29;20122;-86
2023/08/14 11:53:00;;;;;;;4.28;1.50;;;25.20;99.90;;;;;;4938156;29;20596;-85
2023/08/14 11:55:28;;;;;;;4.53;1.50;;;25.00;99.90;;;;;;4954331;29;20036;-86
2023/08/14 11:57:55;;;;;;;3.28;1.45;;;25.00;99.90;;;;;;4954022;29;20086;-86
2023/08/14 12:00:22;;;;;;;5.90;1.63;;;25.00;99.90;;;;;;4953982;29;20054;-86
2023/08/14 12:02:51;;;;;;;4.97;1.60;;;25.20;99.90;;;;;;4953892;29;20485;-86
2023/08/14 12:05:19;;;;;;;4.75;1.65;;;25.00;99.90;;;;;;4953544;29;20913;-86
2023/08/14 12:07:46;;;;;;;5.78;1.70;;;24.80;99.90;;;;;;4950107;29;20489;-86
2023/08/14 12:10:16;;;;;;;3.20;1.33;;;24.60;99.90;;;;;;4921984;29;20051;-86
2023/08/14 12:12:43;;;;;;;5.90;1.45;;;24.60;99.90;;;;;;4953986;29;20047;-86
2023/08/14 12:15:21;;;;;;;4.53;1.50;;;24.50;99.90;;;;;;4953218;29;20064;-86
2023/08/14 12:17:48;;;;;;;3.97;1.30;;;24.70;99.90;;;;;;4937598;29;20493;-86
2023/08/14 12:20:16;;;;;;;3.92;1.38;;;24.80;99.90;;;;;;4937435;29;20039;-86
2023/08/14 12:22:43;;;;;;;4.55;1.50;;;24.70;99.90;;;;;;4953643;29;20044;-85
2023/08/14 12:25:10;;;;;;;5.00;1.50;;;24.70;99.90;;;;;;4953580;29;20035;-86
2023/08/14 12:27:36;;;;;;;4.60;1.63;;;24.80;99.90;;;;;;4939724;29;20035;-85
2023/08/14 12:30:04;;;;;;;5.47;1.27;;;24.80;99.90;;;;;;4925265;29;20035;-85
2023/08/14 12:32:30;;;;;;;3.70;1.40;;;24.70;99.90;;;;;;4985338;28;20050;-85
2023/08/14 12:35:00;;;;;;;4.28;1.30;;;24.90;99.90;;;;;;4941285;29;20404;-84
2023/08/14 12:37:27;;;;;;;4.47;1.42;;;24.90;99.90;;;;;;4941128;29;20510;-86
2023/08/14 12:39:55;;;;;;;4.78;1.30;;;25.10;99.90;;;;;;4941207;29;20068;-85
2023/08/14 12:42:22;;;;;;;3.47;1.20;;;25.30;99.90;;;;;;4956219;29;20047;-85
2023/08/14 12:44:52;;;;;;;4.00;1.33;;;25.40;99.90;;;;;;4956259;29;20043;-85
2023/08/14 12:47:19;;;;;;;5.95;1.50;;;25.50;99.90;;;;;;4955963;29;20403;-85
2023/08/14 12:49:46;;;;;;;5.55;1.63;;;25.70;99.90;;;;;;4940579;29;20035;-85
2023/08/14 12:52:12;;;;;;;4.05;1.42;;;25.70;99.90;;;;;;4940674;29;20046;-85
2023/08/14 12:54:39;;;;;;;4.10;1.35;;;25.80;99.90;;;;;;4940503;29;20492;-84